createdAt,value
2023-02-05T00:03:10.446Z,53.9752280013231
2023-02-05T00:08:06.706Z,70.74610160293433
2023-02-05T00:13:02.930Z,63.60973770396913
2023-02-05T00:17:59.183Z,64.35059635169455
2023-02-05T00:22:55.471Z,54.899502011053414
2023-02-05T00:27:51.750Z,53.439182015200124
2023-02-05T00:32:47.979Z,55.58107427593994
2023-02-05T00:37:44.228Z,55.73043181001683
2023-02-05T00:42:40.502Z,54.409449870872685
2023-02-05T00:47:36.749Z,55.40152814114435
2023-02-05T00:52:33.080Z,55.75137415792759
2023-02-05T00:57:29.275Z,54.41631241585717
2023-02-05T01:02:25.624Z,54.60694874151425
2023-02-05T01:07:21.833Z,59.35438432561269
2023-02-05T01:12:18.075Z,55.31985337288173
2023-02-05T01:17:14.305Z,55.295084905435274
2023-02-05T01:22:10.568Z,55.468967142620656
2023-02-05T01:27:06.856Z,59.49802815659153
2023-02-05T01:32:03.096Z,55.27119839800298
2023-02-05T01:36:59.321Z,59.19528952097186
2023-02-05T01:41:55.628Z,57.77454517030304
2023-02-05T01:46:55.840Z,55.598461766798025
2023-02-05T01:51:54.129Z,56.89828799455131
2023-02-05T01:56:53.376Z,57.26715692867073
2023-02-05T02:01:49.658Z,59.67816613624422
2023-02-05T02:06:45.912Z,59.001911053809046
2023-02-05T02:11:44.103Z,56.17997712012846
2023-02-05T02:16:40.439Z,59.93650316810377
2023-02-05T02:21:49.597Z,56.866944502844675
2023-02-05T02:26:57.832Z,63.0853767044552
2023-02-05T02:32:01.075Z,58.20059100719044
2023-02-05T02:37:06.298Z,62.93273558553466
2023-02-05T02:42:05.564Z,58.10357484744269
2023-02-05T02:47:05.813Z,59.70988038592964
2023-02-05T02:52:06.060Z,56.91146437263714
2023-02-05T02:57:06.351Z,58.46181466907011
2023-02-05T03:02:05.620Z,56.32306215301729
2023-02-05T03:07:04.856Z,58.27477425210485
2023-02-05T03:12:01.139Z,57.07421078169418
2023-02-05T03:16:58.389Z,54.87867098349183
2023-02-05T03:21:59.613Z,51.96230824680755
2023-02-05T03:26:56.836Z,48.747817667756856
2023-02-05T03:31:59.109Z,49.93099001921687
2023-02-05T03:37:00.392Z,48.64937224473831
2023-02-05T03:42:06.561Z,50.766090577705825
2023-02-05T03:47:09.819Z,46.38460224516491
2023-02-05T03:52:12.079Z,46.15612549706539
2023-02-05T03:57:15.323Z,45.9732476720745
2023-02-05T04:02:12.725Z,45.44503560874678
2023-02-05T04:07:08.833Z,45.70992343225386
2023-02-05T04:12:05.055Z,44.77680927564113
2023-02-05T04:17:01.302Z,48.89341509607081
2023-02-05T04:21:57.594Z,47.54128912569492
2023-02-05T04:26:53.866Z,47.84158498430871
2023-02-05T04:31:50.161Z,48.853860270366766
2023-02-05T04:36:46.380Z,49.58959663699276
2023-02-05T04:41:42.634Z,48.5519209352199
2023-02-05T04:46:38.933Z,47.240412610571376
2023-02-05T04:51:37.147Z,45.65773794818971
2023-02-05T04:56:38.369Z,46.86062681044253
2023-02-05T05:01:34.665Z,45.00229367180402
2023-02-05T05:06:34.892Z,47.596580193074026
2023-02-05T05:11:31.171Z,50.61976262098595
2023-02-05T05:16:27.443Z,44.9643990639716
2023-02-05T05:21:23.709Z,45.86089797130171
2023-02-05T05:26:19.931Z,50.19038542198434
2023-02-05T05:31:17.297Z,47.35356557840279
2023-02-05T05:36:14.461Z,50.68949417098123
2023-02-05T05:41:15.704Z,52.02954292726221
2023-02-05T05:46:12.097Z,52.28665502384691
2023-02-05T05:51:08.219Z,51.40513542019678
2023-02-05T05:56:05.498Z,49.954157365536744
2023-02-05T06:01:01.757Z,48.12642623523172
2023-02-05T06:05:59.992Z,50.41456432889661
2023-02-05T06:10:56.235Z,51.6249798238017
2023-02-05T06:15:52.528Z,50.44267148232615
2023-02-05T06:20:48.802Z,47.31629790545786
2023-02-05T06:25:45.056Z,49.08021841536713
2023-02-05T06:30:42.338Z,47.90084841065323
2023-02-05T06:35:38.568Z,48.27619953238992
2023-02-05T06:40:34.788Z,46.637331740805195
2023-02-05T06:45:31.093Z,50.68890502814278
2023-02-05T06:50:27.314Z,49.45334379545612
2023-02-05T06:55:23.642Z,50.80831665155945
2023-02-05T07:00:19.848Z,47.95791443485007
2023-02-05T07:05:16.136Z,47.22554292170802
2023-02-05T07:10:12.371Z,46.355419789929215
2023-02-05T07:15:08.592Z,45.38405743505306
2023-02-05T07:20:04.903Z,46.15358841119318
2023-02-05T07:25:03.934Z,44.445482665802324
2023-02-05T07:30:00.411Z,47.93680393813696
2023-02-05T07:34:56.673Z,46.67004681985581
2023-02-05T07:39:52.890Z,45.91527507075042
2023-02-05T07:44:49.163Z,47.134140307756816
2023-02-05T07:49:45.395Z,47.38867790763089
2023-02-05T07:54:41.696Z,50.019698552625705
2023-02-05T07:59:37.953Z,46.60678032298517
2023-02-05T08:04:34.289Z,46.77399066530325
2023-02-05T08:09:30.469Z,44.80018672126398
2023-02-05T08:14:26.722Z,43.87855035836523
2023-02-05T08:19:22.958Z,44.44011618610346
2023-02-05T08:24:19.219Z,43.402360039627695
2023-02-05T08:29:14.485Z,42.03025797384332
2023-02-05T08:34:10.793Z,43.34978950403604
2023-02-05T08:39:07.028Z,42.681054084264936
2023-02-05T08:44:02.265Z,42.361460161392515
2023-02-05T08:48:58.520Z,43.14424810440129
2023-02-05T08:53:54.823Z,41.07282567710654
2023-02-05T08:58:51.060Z,40.315852317993205
2023-02-05T09:03:47.311Z,40.203920556296026
2023-02-05T09:08:43.598Z,40.32859346046246
2023-02-05T09:13:39.810Z,38.81531500306655
2023-02-05T09:18:36.102Z,39.83272717045604
2023-02-05T09:23:32.333Z,39.46459118486939
2023-02-05T09:28:28.597Z,39.252863850470604
2023-02-05T09:33:24.886Z,37.41096984731318
2023-02-05T09:38:21.130Z,39.06697861988279
2023-02-05T09:43:25.372Z,37.59113914789715
2023-02-05T09:48:37.601Z,40.22410099490126
2023-02-05T09:53:38.813Z,38.108698985154966
2023-02-05T09:58:40.062Z,39.08410086823881
2023-02-05T10:03:43.368Z,39.18760316285192
2023-02-05T10:08:49.588Z,38.42125937938797
2023-02-05T10:14:03.797Z,38.50857027070337
2023-02-05T10:19:11.994Z,37.31646117814993
2023-02-05T10:24:24.248Z,38.56263891732218
2023-02-05T10:29:32.449Z,34.35020515200045
2023-02-05T10:34:40.661Z,35.790039668149895
2023-02-05T10:39:42.977Z,35.49131689992729
2023-02-05T10:44:44.200Z,34.533795586435424
2023-02-05T10:49:47.400Z,35.19293752331239
2023-02-05T10:54:48.694Z,34.73941259146421
2023-02-05T10:59:55.920Z,34.65929615679653
2023-02-05T11:04:59.181Z,32.05092445587567
2023-02-05T11:10:07.375Z,31.94217194201696
2023-02-05T11:15:04.633Z,33.467282109483044
2023-02-05T11:20:02.928Z,35.70334885984819
2023-02-05T11:25:06.121Z,33.25032197073061
2023-02-05T11:35:09.632Z,32.755713370840915
2023-02-05T11:40:12.861Z,30.946328698285175
2023-02-05T11:45:16.102Z,32.095444680249194
2023-02-05T11:50:18.851Z,31.92599942505793
2023-02-05T11:55:22.612Z,30.181978906187634
2023-02-05T12:00:24.875Z,34.045140665472765
2023-02-05T12:05:24.144Z,31.8145071276547
2023-02-05T12:10:25.349Z,34.15611155010044
2023-02-05T12:15:28.613Z,32.44097798538642
2023-02-05T12:20:29.850Z,34.75483489700368
2023-02-05T12:25:40.786Z,37.20061560604175
2023-02-05T12:30:50.321Z,39.17710197421495
2023-02-05T12:35:58.516Z,36.74389726590411
2023-02-05T12:41:08.715Z,38.55556836288091
2023-02-05T12:46:19.039Z,37.673478779332186
2023-02-05T12:51:27.177Z,37.082356723949765
2023-02-05T12:56:36.426Z,38.286276370486156
2023-02-05T13:01:39.629Z,38.485030753615916
2023-02-05T13:06:41.941Z,38.12509320827548
2023-02-05T13:11:44.098Z,36.657309121208336
2023-02-05T13:16:44.471Z,37.06516320953501
2023-02-05T13:26:49.865Z,38.89425899385845
2023-02-05T13:31:50.096Z,33.5534532841732
2023-02-05T13:37:01.361Z,34.80757104705417
2023-02-05T13:42:14.541Z,36.330495685257716
2023-02-05T13:47:27.806Z,39.51649614004
2023-02-05T13:52:47.011Z,38.54681199243038
2023-02-05T13:57:57.213Z,39.36873436219519
2023-02-05T14:03:01.479Z,38.79776821645998
2023-02-05T14:07:58.721Z,37.863906121874386
2023-02-05T14:13:01.949Z,38.9332319144256
2023-02-05T14:18:09.172Z,39.20819417508508
2023-02-05T14:23:12.430Z,40.08547708056094
2023-02-05T14:28:24.660Z,39.317234250223514
2023-02-05T14:33:36.879Z,39.37923378984288
2023-02-05T14:38:33.271Z,39.60182016116572
2023-02-05T14:43:33.371Z,39.23220903057921
2023-02-05T14:48:30.649Z,30.766480382487455
2023-02-05T14:53:30.840Z,28.22383012657798
2023-02-05T14:58:31.150Z,28.721926919859015
2023-02-05T15:03:39.378Z,30.830130050704017
2023-02-05T15:08:48.579Z,27.525646438264523
2023-02-05T15:13:50.810Z,31.67281976170818
2023-02-05T15:18:53.075Z,36.15577787619742
2023-02-05T15:23:56.336Z,34.96432634301426
2023-02-05T15:28:58.563Z,37.27750945371253
2023-02-05T15:34:04.795Z,40.297449526299616
2023-02-05T15:39:13.039Z,40.63673086168825
2023-02-05T15:44:18.296Z,40.54466802234245
2023-02-05T15:49:14.529Z,42.53269471246189
2023-02-05T15:54:17.790Z,40.95262279136478
2023-02-05T15:59:20.011Z,40.777700589417734
2023-02-05T16:04:17.307Z,40.36879991291166
2023-02-05T16:09:18.532Z,41.913792381447415
2023-02-05T16:14:15.746Z,44.3182903301082
2023-02-05T16:19:16.037Z,47.86237260087182
2023-02-05T16:29:31.584Z,45.58138348875323
2023-02-05T16:34:30.702Z,48.819853436152194
2023-02-05T16:39:29.005Z,46.64019330027064
2023-02-05T16:44:27.255Z,50.30877747553531
2023-02-05T16:49:30.512Z,47.13496024088165
2023-02-05T16:54:28.727Z,46.26715265040042
2023-02-05T16:59:29.948Z,45.68316362553547
2023-02-05T17:04:29.227Z,49.817515033491404
2023-02-05T17:09:29.503Z,47.60354820932269
2023-02-05T17:14:30.699Z,47.672493633494
2023-02-05T17:19:28.962Z,49.496461975287374
2023-02-05T17:24:26.241Z,47.57947278015912
2023-02-05T17:29:23.527Z,51.01084582076583
2023-02-05T17:34:21.742Z,50.59617911401466
2023-02-05T17:39:18.002Z,48.069974604541436
2023-02-05T17:44:15.235Z,50.390404708531534
2023-02-05T17:49:11.590Z,47.22575337671932
2023-02-05T17:54:11.793Z,50.010151283983234
2023-02-05T17:59:10.077Z,50.278144600035716
2023-02-05T18:04:06.326Z,48.17908560028857
2023-02-05T18:09:02.535Z,48.79110362495322
2023-02-05T18:13:58.839Z,48.5707017708868
2023-02-05T18:18:55.090Z,53.42503883548653
2023-02-05T18:23:56.058Z,51.48565579989663
2023-02-05T18:28:52.574Z,49.31258369455561
2023-02-05T18:33:47.831Z,48.300140063898574
2023-02-05T18:38:44.074Z,49.72320470850654
2023-02-05T18:43:41.355Z,48.29492277801285
2023-02-05T18:48:38.626Z,50.94968611757265
2023-02-05T18:53:34.873Z,48.368351259867524
2023-02-05T18:58:31.133Z,48.93443422324552
2023-02-05T19:03:27.462Z,47.39536721710899
2023-02-05T19:08:23.659Z,50.15015819291897
2023-02-05T19:13:19.928Z,49.3143595110419
2023-02-05T19:18:16.200Z,51.25328319285137
2023-02-05T19:23:12.396Z,49.61867789083563
2023-02-05T19:28:08.809Z,49.51056134016936
2023-02-05T19:33:05.970Z,51.137058355851714
2023-02-05T19:38:01.215Z,52.71936603315111
2023-02-05T19:42:57.440Z,49.9112511862489
2023-02-05T19:47:53.744Z,51.416499830069576
2023-02-05T19:52:51.956Z,51.12951439789667
2023-02-05T19:57:48.238Z,53.65705550509284
2023-02-05T20:02:44.521Z,54.22803343002195
2023-02-05T20:07:40.729Z,48.65374706157809
2023-02-05T20:12:36.034Z,49.639091990884445
2023-02-05T20:17:32.277Z,57.7714313316696
2023-02-05T20:22:27.521Z,50.64657498446047
2023-02-05T20:27:24.764Z,51.48380528195542
2023-02-05T20:32:22.039Z,53.23548880503206
2023-02-05T20:37:18.321Z,51.89133089765882
2023-02-05T20:42:14.579Z,50.703284452671824
2023-02-05T20:47:11.840Z,51.68052726183042
2023-02-05T20:52:09.064Z,52.304675600444206
2023-02-05T20:57:05.349Z,53.471108311732124
2023-02-05T21:02:02.715Z,51.39786537934361
2023-02-05T21:06:59.873Z,50.77895079670382
2023-02-05T21:11:57.108Z,54.68261965951256
2023-02-05T21:16:54.363Z,52.226735747743696
2023-02-05T21:21:51.622Z,51.3653687257912
2023-02-05T21:26:48.896Z,52.209736778527784
2023-02-05T21:31:45.184Z,55.98908124631686
2023-02-05T21:36:42.396Z,54.28606607739875
2023-02-05T21:41:39.648Z,55.04050645778384
2023-02-05T21:46:36.946Z,53.793199778067226
2023-02-05T21:51:37.179Z,51.3405303385335
2023-02-05T21:56:34.472Z,52.31621633026408
2023-02-05T22:01:41.689Z,53.11911901986256
2023-02-05T22:06:37.890Z,53.31414658203983
2023-02-05T22:11:34.151Z,56.05297553708691
2023-02-05T22:16:34.558Z,59.15228552203897
2023-02-05T22:21:36.640Z,51.99014712480716
2023-02-05T22:26:33.897Z,54.592608712711666
2023-02-05T22:31:30.235Z,55.787678695996156
2023-02-05T22:36:27.452Z,55.36271513795248
2023-02-05T22:41:24.690Z,53.457735206641274
2023-02-05T22:46:21.944Z,54.64011364073563
2023-02-05T22:51:19.217Z,52.661960678699565
2023-02-05T22:56:16.473Z,53.82618931115794
2023-02-05T23:01:13.761Z,53.30166909140776
2023-02-05T23:06:10.957Z,56.74349426266409
2023-02-05T23:11:10.239Z,54.48501569662418
2023-02-05T23:16:07.509Z,54.88454837807311
2023-02-05T23:21:06.754Z,54.531581894826736
2023-02-05T23:26:05.059Z,56.0285308344083
2023-02-05T23:31:00.328Z,56.16995378914438
2023-02-05T23:35:57.526Z,54.71528019128379
2023-02-05T23:40:54.766Z,55.856831168371244
2023-02-05T23:45:52.044Z,54.106578956279755
2023-02-05T23:50:48.262Z,54.46787245847416
2023-02-05T23:55:44.538Z,54.7858083890598
